Huvudsida
METAR-TAF:

METAR-TAF

Flygplatser :

Stockholm-Västerås flygplats

Västerås, Sverige

latitud: 59-35N, longitud: 016-38E, höjd: 6 m

Aktuellt väderrapport

Denna rapport gjordes för 33 minuter sedan, klockan 14:20 UTC
Vind 15 kt från syd/sydost
Temperatur 19°C
Fuktighet 22%
Tryck 1025 hPa
Sikt 10 km eller mer

METAR: ESOW 231420Z AUTO 16015KT 9999 NCD 19/M03 Q1025

Tid: 16:53 (14:53 UTC)

Väderprognos

Denna rapport gjordes för 23 minuter sedan, klockan 14:30 UTC
Prognos gäller från 22 kl. 15 UTC till 22 kl. 17 UTC
Vind 8 kt från syd
Sikt 10 km eller mer
Inga moln under 1 500 m eller inga cumulonimbus

TAF: ESOW 221430Z 2215/2217 18008KT CAVOK

Aktuella väderrapporter och prognoser från 4000 flygplatser (METAR- och TAF-rapporter).

De tillgängliga stationerna syns som gula och röda prickar på kartan.

För musen över prickarna för att se namnen på stationerna.

Klicka sedan för att få väderrapporter och prognoser.

För att ändra kartan: Klicka på de gröna knapparna med ett svart kors på för att zooma in; den gröna knappen med ett streck på för att zooma ut; eller på de gröna pilarna för angränsande kartor.


METAR-TAF: